sensor_id;sensor_type;location;lat;lon;timestamp;P1;durP1;ratioP1;P2;durP2;ratioP2
840;SDS011;406;48.566;13.450;2023-04-25T00:01:55;3.40;;;2.73;;
840;SDS011;406;48.566;13.450;2023-04-25T00:04:22;2.60;;;2.37;;
840;SDS011;406;48.566;13.450;2023-04-25T00:06:49;4.03;;;2.60;;
840;SDS011;406;48.566;13.450;2023-04-25T00:09:16;2.50;;;2.10;;
840;SDS011;406;48.566;13.450;2023-04-25T00:11:42;4.30;;;2.70;;
840;SDS011;406;48.566;13.450;2023-04-25T00:14:09;3.73;;;3.10;;
840;SDS011;406;48.566;13.450;2023-04-25T00:16:36;3.73;;;1.90;;
840;SDS011;406;48.566;13.450;2023-04-25T00:19:03;2.67;;;2.43;;
840;SDS011;406;48.566;13.450;2023-04-25T00:21:29;3.10;;;2.30;;
840;SDS011;406;48.566;13.450;2023-04-25T00:23:57;3.03;;;2.53;;
840;SDS011;406;48.566;13.450;2023-04-25T00:26:24;3.30;;;2.70;;
840;SDS011;406;48.566;13.450;2023-04-25T00:28:51;3.80;;;2.43;;
840;SDS011;406;48.566;13.450;2023-04-25T00:31:18;2.00;;;1.73;;
840;SDS011;406;48.566;13.450;2023-04-25T00:33:44;2.83;;;1.77;;
840;SDS011;406;48.566;13.450;2023-04-25T00:36:11;3.10;;;2.20;;
840;SDS011;406;48.566;13.450;2023-04-25T00:38:37;6.53;;;2.30;;
840;SDS011;406;48.566;13.450;2023-04-25T00:41:05;3.00;;;2.70;;
840;SDS011;406;48.566;13.450;2023-04-25T00:43:32;7.67;;;2.60;;
840;SDS011;406;48.566;13.450;2023-04-25T00:46:00;2.97;;;2.30;;
840;SDS011;406;48.566;13.450;2023-04-25T00:48:27;5.27;;;2.80;;
840;SDS011;406;48.566;13.450;2023-04-25T00:50:54;4.20;;;2.77;;
840;SDS011;406;48.566;13.450;2023-04-25T00:53:23;2.87;;;2.50;;
840;SDS011;406;48.566;13.450;2023-04-25T00:55:51;7.17;;;2.30;;
840;SDS011;406;48.566;13.450;2023-04-25T00:58:17;3.77;;;2.60;;
840;SDS011;406;48.566;13.450;2023-04-25T01:00:48;4.27;;;2.93;;
840;SDS011;406;48.566;13.450;2023-04-25T01:03:16;5.60;;;3.33;;
840;SDS011;406;48.566;13.450;2023-04-25T01:05:46;3.23;;;2.50;;
840;SDS011;406;48.566;13.450;2023-04-25T01:08:13;3.70;;;2.60;;
840;SDS011;406;48.566;13.450;2023-04-25T01:10:40;3.07;;;2.77;;
840;SDS011;406;48.566;13.450;2023-04-25T01:13:07;4.23;;;2.90;;
840;SDS011;406;48.566;13.450;2023-04-25T01:15:33;2.67;;;2.47;;
840;SDS011;406;48.566;13.450;2023-04-25T01:18:02;2.97;;;2.60;;
840;SDS011;406;48.566;13.450;2023-04-25T01:20:30;3.20;;;2.57;;
840;SDS011;406;48.566;13.450;2023-04-25T01:22:58;2.37;;;1.97;;
840;SDS011;406;48.566;13.450;2023-04-25T01:25:25;5.43;;;2.13;;
840;SDS011;406;48.566;13.450;2023-04-25T01:27:52;3.13;;;2.53;;
840;SDS011;406;48.566;13.450;2023-04-25T01:30:19;3.60;;;2.40;;
840;SDS011;406;48.566;13.450;2023-04-25T01:32:45;3.23;;;2.40;;
840;SDS011;406;48.566;13.450;2023-04-25T01:35:13;4.17;;;3.00;;
840;SDS011;406;48.566;13.450;2023-04-25T01:37:40;6.67;;;2.40;;
840;SDS011;406;48.566;13.450;2023-04-25T01:40:10;3.17;;;2.90;;
840;SDS011;406;48.566;13.450;2023-04-25T01:42:38;6.00;;;3.37;;
840;SDS011;406;48.566;13.450;2023-04-25T01:45:07;8.90;;;4.00;;
840;SDS011;406;48.566;13.450;2023-04-25T01:47:34;5.07;;;4.03;;
840;SDS011;406;48.566;13.450;2023-04-25T01:50:04;3.93;;;2.33;;
840;SDS011;406;48.566;13.450;2023-04-25T01:52:31;4.77;;;2.83;;
840;SDS011;406;48.566;13.450;2023-04-25T01:55:00;6.93;;;3.50;;
840;SDS011;406;48.566;13.450;2023-04-25T01:57:29;5.87;;;4.10;;
840;SDS011;406;48.566;13.450;2023-04-25T02:00:00;4.20;;;2.53;;
840;SDS011;406;48.566;13.450;2023-04-25T02:02:37;4.33;;;2.67;;
840;SDS011;406;48.566;13.450;2023-04-25T02:05:11;6.23;;;3.90;;
840;SDS011;406;48.566;13.450;2023-04-25T02:07:41;6.57;;;3.00;;
840;SDS011;406;48.566;13.450;2023-04-25T02:10:07;3.80;;;2.50;;
840;SDS011;406;48.566;13.450;2023-04-25T02:12:40;4.40;;;3.47;;
840;SDS011;406;48.566;13.450;2023-04-25T02:15:35;3.70;;;2.70;;
840;SDS011;406;48.566;13.450;2023-04-25T02:18:13;4.00;;;2.70;;
840;SDS011;406;48.566;13.450;2023-04-25T02:20:43;4.20;;;3.00;;
840;SDS011;406;48.566;13.450;2023-04-25T02:23:10;3.10;;;2.30;;
840;SDS011;406;48.566;13.450;2023-04-25T02:25:37;3.43;;;2.70;;
840;SDS011;406;48.566;13.450;2023-04-25T02:28:03;3.43;;;2.93;;
840;SDS011;406;48.566;13.450;2023-04-25T02:30:30;4.73;;;2.93;;
840;SDS011;406;48.566;13.450;2023-04-25T02:32:56;4.20;;;3.37;;
840;SDS011;406;48.566;13.450;2023-04-25T02:35:23;7.03;;;3.50;;
840;SDS011;406;48.566;13.450;2023-04-25T02:37:52;4.50;;;2.93;;
840;SDS011;406;48.566;13.450;2023-04-25T02:40:19;3.60;;;2.90;;
840;SDS011;406;48.566;13.450;2023-04-25T02:42:45;4.07;;;3.10;;
840;SDS011;406;48.566;13.450;2023-04-25T02:45:12;4.57;;;3.10;;
840;SDS011;406;48.566;13.450;2023-04-25T02:47:38;4.60;;;3.40;;
840;SDS011;406;48.566;13.450;2023-04-25T02:50:05;4.83;;;3.23;;
840;SDS011;406;48.566;13.450;2023-04-25T02:52:32;4.67;;;3.47;;
840;SDS011;406;48.566;13.450;2023-04-25T02:55:08;6.20;;;3.10;;
840;SDS011;406;48.566;13.450;2023-04-25T02:57:35;3.80;;;3.30;;
840;SDS011;406;48.566;13.450;2023-04-25T03:00:02;4.07;;;3.10;;
840;SDS011;406;48.566;13.450;2023-04-25T03:02:31;3.93;;;3.30;;
840;SDS011;406;48.566;13.450;2023-04-25T03:04:57;4.07;;;3.00;;
840;SDS011;406;48.566;13.450;2023-04-25T03:07:24;4.10;;;2.70;;
840;SDS011;406;48.566;13.450;2023-04-25T03:09:51;5.23;;;3.00;;
840;SDS011;406;48.566;13.450;2023-04-25T03:12:17;4.67;;;3.23;;
840;SDS011;406;48.566;13.450;2023-04-25T03:14:44;2.60;;;2.40;;
840;SDS011;406;48.566;13.450;2023-04-25T03:17:10;4.80;;;2.50;;
840;SDS011;406;48.566;13.450;2023-04-25T03:19:37;3.33;;;2.47;;
840;SDS011;406;48.566;13.450;2023-04-25T03:22:03;3.50;;;2.97;;
840;SDS011;406;48.566;13.450;2023-04-25T03:24:30;4.70;;;2.90;;
840;SDS011;406;48.566;13.450;2023-04-25T03:26:57;3.80;;;2.60;;
840;SDS011;406;48.566;13.450;2023-04-25T03:29:24;4.30;;;2.37;;
840;SDS011;406;48.566;13.450;2023-04-25T03:31:53;4.37;;;2.90;;
840;SDS011;406;48.566;13.450;2023-04-25T03:34:19;4.27;;;3.03;;
840;SDS011;406;48.566;13.450;2023-04-25T03:36:47;4.17;;;3.50;;
840;SDS011;406;48.566;13.450;2023-04-25T03:39:14;3.37;;;3.00;;
840;SDS011;406;48.566;13.450;2023-04-25T03:41:46;3.73;;;3.20;;
840;SDS011;406;48.566;13.450;2023-04-25T03:44:13;3.13;;;2.53;;
840;SDS011;406;48.566;13.450;2023-04-25T03:46:40;3.13;;;2.80;;
840;SDS011;406;48.566;13.450;2023-04-25T03:49:07;3.33;;;2.70;;
840;SDS011;406;48.566;13.450;2023-04-25T03:51:55;2.33;;;2.10;;
840;SDS011;406;48.566;13.450;2023-04-25T03:54:21;4.77;;;2.70;;
840;SDS011;406;48.566;13.450;2023-04-25T03:57:00;3.60;;;2.57;;
840;SDS011;406;48.566;13.450;2023-04-25T03:59:29;3.23;;;2.27;;
840;SDS011;406;48.566;13.450;2023-04-25T04:01:56;3.10;;;2.80;;
840;SDS011;406;48.566;13.450;2023-04-25T04:04:23;4.20;;;3.00;;
840;SDS011;406;48.566;13.450;2023-04-25T04:06:50;3.17;;;2.80;;
840;SDS011;406;48.566;13.450;2023-04-25T04:09:22;3.70;;;3.20;;
840;SDS011;406;48.566;13.450;2023-04-25T04:11:49;4.53;;;3.40;;
840;SDS011;406;48.566;13.450;2023-04-25T04:14:16;6.47;;;3.53;;
840;SDS011;406;48.566;13.450;2023-04-25T04:16:45;3.93;;;3.37;;
840;SDS011;406;48.566;13.450;2023-04-25T04:19:11;4.00;;;3.50;;
840;SDS011;406;48.566;13.450;2023-04-25T04:21:43;7.30;;;5.20;;
840;SDS011;406;48.566;13.450;2023-04-25T04:24:09;7.80;;;3.90;;
840;SDS011;406;48.566;13.450;2023-04-25T04:26:48;7.10;;;3.90;;
840;SDS011;406;48.566;13.450;2023-04-25T04:29:35;3.90;;;3.17;;
840;SDS011;406;48.566;13.450;2023-04-25T04:32:09;5.07;;;3.80;;
840;SDS011;406;48.566;13.450;2023-04-25T04:34:36;4.17;;;3.07;;
840;SDS011;406;48.566;13.450;2023-04-25T04:37:03;5.07;;;3.43;;
840;SDS011;406;48.566;13.450;2023-04-25T04:39:29;7.13;;;3.30;;
840;SDS011;406;48.566;13.450;2023-04-25T04:42:07;5.13;;;3.80;;
840;SDS011;406;48.566;13.450;2023-04-25T04:44:46;3.73;;;3.37;;
840;SDS011;406;48.566;13.450;2023-04-25T04:47:23;5.40;;;4.27;;
840;SDS011;406;48.566;13.450;2023-04-25T04:50:11;7.30;;;4.50;;
840;SDS011;406;48.566;13.450;2023-04-25T04:53:12;8.73;;;3.93;;
840;SDS011;406;48.566;13.450;2023-04-25T04:55:57;8.07;;;4.10;;
840;SDS011;406;48.566;13.450;2023-04-25T04:58:42;4.03;;;3.47;;
840;SDS011;406;48.566;13.450;2023-04-25T05:01:28;6.07;;;3.43;;
840;SDS011;406;48.566;13.450;2023-04-25T05:04:18;3.90;;;3.03;;
840;SDS011;406;48.566;13.450;2023-04-25T05:06:58;4.50;;;3.70;;
840;SDS011;406;48.566;13.450;2023-04-25T05:09:41;6.10;;;3.70;;
840;SDS011;406;48.566;13.450;2023-04-25T05:12:26;5.33;;;3.50;;
840;SDS011;406;48.566;13.450;2023-04-25T05:15:15;3.83;;;3.43;;
840;SDS011;406;48.566;13.450;2023-04-25T05:18:04;6.20;;;4.10;;
840;SDS011;406;48.566;13.450;2023-04-25T05:20:44;5.87;;;4.40;;
840;SDS011;406;48.566;13.450;2023-04-25T05:23:23;8.03;;;4.40;;
840;SDS011;406;48.566;13.450;2023-04-25T05:25:50;4.60;;;4.03;;
840;SDS011;406;48.566;13.450;2023-04-25T05:28:49;6.00;;;4.10;;
840;SDS011;406;48.566;13.450;2023-04-25T05:31:37;5.60;;;3.70;;
840;SDS011;406;48.566;13.450;2023-04-25T05:34:08;4.20;;;3.73;;
840;SDS011;406;48.566;13.450;2023-04-25T05:36:44;4.30;;;3.40;;
840;SDS011;406;48.566;13.450;2023-04-25T05:39:11;5.97;;;3.57;;
840;SDS011;406;48.566;13.450;2023-04-25T05:41:57;5.67;;;4.43;;
840;SDS011;406;48.566;13.450;2023-04-25T05:44:44;5.50;;;3.47;;
840;SDS011;406;48.566;13.450;2023-04-25T05:47:23;3.83;;;3.40;;
840;SDS011;406;48.566;13.450;2023-04-25T05:50:13;5.80;;;3.73;;
840;SDS011;406;48.566;13.450;2023-04-25T05:53:00;8.20;;;4.47;;
840;SDS011;406;48.566;13.450;2023-04-25T05:55:29;6.37;;;4.03;;
840;SDS011;406;48.566;13.450;2023-04-25T05:57:58;5.70;;;4.40;;
840;SDS011;406;48.566;13.450;2023-04-25T06:00:24;6.60;;;4.20;;
840;SDS011;406;48.566;13.450;2023-04-25T06:02:51;4.80;;;3.73;;
840;SDS011;406;48.566;13.450;2023-04-25T06:05:18;4.83;;;3.70;;
840;SDS011;406;48.566;13.450;2023-04-25T06:07:47;5.60;;;4.70;;
840;SDS011;406;48.566;13.450;2023-04-25T06:10:13;5.50;;;3.90;;
840;SDS011;406;48.566;13.450;2023-04-25T06:12:41;7.13;;;4.00;;
840;SDS011;406;48.566;13.450;2023-04-25T06:15:07;4.37;;;3.60;;
840;SDS011;406;48.566;13.450;2023-04-25T06:17:52;5.83;;;4.20;;
840;SDS011;406;48.566;13.450;2023-04-25T06:20:18;4.73;;;3.40;;
840;SDS011;406;48.566;13.450;2023-04-25T06:22:50;5.00;;;4.27;;
840;SDS011;406;48.566;13.450;2023-04-25T06:25:19;3.73;;;3.40;;
840;SDS011;406;48.566;13.450;2023-04-25T06:27:46;4.40;;;3.20;;
840;SDS011;406;48.566;13.450;2023-04-25T06:30:13;4.00;;;3.20;;
840;SDS011;406;48.566;13.450;2023-04-25T06:32:39;4.57;;;3.37;;
840;SDS011;406;48.566;13.450;2023-04-25T06:35:06;5.53;;;3.20;;
840;SDS011;406;48.566;13.450;2023-04-25T06:37:33;6.13;;;4.03;;
840;SDS011;406;48.566;13.450;2023-04-25T06:40:00;5.10;;;3.77;;
840;SDS011;406;48.566;13.450;2023-04-25T06:42:27;4.57;;;3.83;;
840;SDS011;406;48.566;13.450;2023-04-25T06:44:58;6.13;;;4.20;;
840;SDS011;406;48.566;13.450;2023-04-25T06:47:26;3.90;;;3.50;;
840;SDS011;406;48.566;13.450;2023-04-25T06:49:53;5.27;;;4.00;;
840;SDS011;406;48.566;13.450;2023-04-25T06:52:20;6.37;;;3.80;;
840;SDS011;406;48.566;13.450;2023-04-25T06:54:47;4.20;;;3.40;;
840;SDS011;406;48.566;13.450;2023-04-25T06:57:22;3.90;;;3.50;;
840;SDS011;406;48.566;13.450;2023-04-25T06:59:49;3.80;;;3.23;;
840;SDS011;406;48.566;13.450;2023-04-25T07:02:16;7.33;;;3.70;;
840;SDS011;406;48.566;13.450;2023-04-25T07:04:43;3.67;;;3.27;;
840;SDS011;406;48.566;13.450;2023-04-25T07:07:11;4.07;;;3.67;;
840;SDS011;406;48.566;13.450;2023-04-25T07:09:46;5.27;;;4.50;;
840;SDS011;406;48.566;13.450;2023-04-25T07:12:14;4.57;;;4.17;;
840;SDS011;406;48.566;13.450;2023-04-25T07:14:40;4.50;;;4.07;;
840;SDS011;406;48.566;13.450;2023-04-25T07:17:08;4.20;;;3.50;;
840;SDS011;406;48.566;13.450;2023-04-25T07:19:35;3.70;;;3.40;;
840;SDS011;406;48.566;13.450;2023-04-25T07:22:02;4.03;;;3.63;;
840;SDS011;406;48.566;13.450;2023-04-25T07:24:30;3.90;;;3.40;;
840;SDS011;406;48.566;13.450;2023-04-25T07:26:58;3.93;;;2.90;;
840;SDS011;406;48.566;13.450;2023-04-25T07:29:47;4.00;;;3.00;;
840;SDS011;406;48.566;13.450;2023-04-25T07:32:13;6.87;;;3.67;;
840;SDS011;406;48.566;13.450;2023-04-25T07:34:41;4.67;;;3.63;;
840;SDS011;406;48.566;13.450;2023-04-25T07:37:08;4.80;;;3.47;;
840;SDS011;406;48.566;13.450;2023-04-25T07:39:44;6.50;;;3.43;;
840;SDS011;406;48.566;13.450;2023-04-25T07:42:12;3.87;;;3.43;;
840;SDS011;406;48.566;13.450;2023-04-25T07:44:41;3.80;;;3.37;;
840;SDS011;406;48.566;13.450;2023-04-25T07:47:10;4.97;;;3.27;;
840;SDS011;406;48.566;13.450;2023-04-25T07:49:37;3.90;;;3.10;;
840;SDS011;406;48.566;13.450;2023-04-25T07:52:04;4.20;;;3.33;;
840;SDS011;406;48.566;13.450;2023-04-25T07:54:36;4.10;;;3.20;;
840;SDS011;406;48.566;13.450;2023-04-25T07:57:11;4.67;;;3.67;;
840;SDS011;406;48.566;13.450;2023-04-25T07:59:37;4.50;;;3.53;;
840;SDS011;406;48.566;13.450;2023-04-25T08:02:05;4.60;;;3.53;;
840;SDS011;406;48.566;13.450;2023-04-25T08:04:31;3.60;;;3.27;;
840;SDS011;406;48.566;13.450;2023-04-25T08:07:03;3.73;;;3.00;;
840;SDS011;406;48.566;13.450;2023-04-25T08:09:37;4.67;;;3.67;;
840;SDS011;406;48.566;13.450;2023-04-25T08:12:08;4.10;;;3.57;;
840;SDS011;406;48.566;13.450;2023-04-25T08:14:36;5.67;;;2.90;;
840;SDS011;406;48.566;13.450;2023-04-25T08:17:04;3.20;;;2.90;;
840;SDS011;406;48.566;13.450;2023-04-25T08:19:33;3.77;;;3.40;;
840;SDS011;406;48.566;13.450;2023-04-25T08:22:01;3.20;;;2.90;;
840;SDS011;406;48.566;13.450;2023-04-25T08:24:36;5.20;;;3.57;;
840;SDS011;406;48.566;13.450;2023-04-25T08:27:06;4.00;;;3.60;;
840;SDS011;406;48.566;13.450;2023-04-25T08:29:34;3.70;;;3.40;;
840;SDS011;406;48.566;13.450;2023-04-25T08:32:01;3.83;;;3.53;;
840;SDS011;406;48.566;13.450;2023-04-25T08:34:28;4.07;;;3.20;;
840;SDS011;406;48.566;13.450;2023-04-25T08:36:55;3.93;;;3.50;;
840;SDS011;406;48.566;13.450;2023-04-25T08:39:32;3.53;;;3.23;;
840;SDS011;406;48.566;13.450;2023-04-25T08:42:22;5.43;;;3.13;;
840;SDS011;406;48.566;13.450;2023-04-25T08:44:49;4.30;;;3.37;;
840;SDS011;406;48.566;13.450;2023-04-25T08:47:18;6.20;;;2.77;;
840;SDS011;406;48.566;13.450;2023-04-25T08:49:50;3.47;;;2.97;;
840;SDS011;406;48.566;13.450;2023-04-25T08:52:21;3.30;;;2.67;;
840;SDS011;406;48.566;13.450;2023-04-25T08:54:49;4.70;;;3.37;;
840;SDS011;406;48.566;13.450;2023-04-25T08:57:17;4.17;;;3.13;;
840;SDS011;406;48.566;13.450;2023-04-25T08:59:45;4.10;;;2.50;;
840;SDS011;406;48.566;13.450;2023-04-25T09:02:12;3.30;;;2.93;;
840;SDS011;406;48.566;13.450;2023-04-25T09:04:47;3.70;;;2.97;;
840;SDS011;406;48.566;13.450;2023-04-25T09:07:13;3.50;;;3.10;;
840;SDS011;406;48.566;13.450;2023-04-25T09:09:44;3.13;;;2.80;;
840;SDS011;406;48.566;13.450;2023-04-25T09:12:15;2.57;;;2.30;;
840;SDS011;406;48.566;13.450;2023-04-25T09:14:44;2.80;;;2.40;;
840;SDS011;406;48.566;13.450;2023-04-25T09:17:44;4.67;;;2.40;;
840;SDS011;406;48.566;13.450;2023-04-25T09:20:12;4.87;;;2.83;;
840;SDS011;406;48.566;13.450;2023-04-25T09:22:40;3.80;;;2.40;;
840;SDS011;406;48.566;13.450;2023-04-25T09:25:10;4.07;;;2.60;;
840;SDS011;406;48.566;13.450;2023-04-25T09:27:49;4.27;;;2.83;;
840;SDS011;406;48.566;13.450;2023-04-25T09:30:34;4.70;;;3.07;;
840;SDS011;406;48.566;13.450;2023-04-25T09:33:11;2.90;;;2.70;;
840;SDS011;406;48.566;13.450;2023-04-25T09:35:44;3.63;;;2.93;;
840;SDS011;406;48.566;13.450;2023-04-25T09:38:24;2.50;;;2.30;;
840;SDS011;406;48.566;13.450;2023-04-25T09:40:51;4.20;;;2.43;;
840;SDS011;406;48.566;13.450;2023-04-25T09:43:29;3.00;;;2.70;;
840;SDS011;406;48.566;13.450;2023-04-25T09:45:56;4.40;;;2.50;;
840;SDS011;406;48.566;13.450;2023-04-25T09:48:29;4.73;;;2.60;;
840;SDS011;406;48.566;13.450;2023-04-25T09:51:14;3.43;;;2.83;;
840;SDS011;406;48.566;13.450;2023-04-25T09:53:44;3.70;;;2.90;;
840;SDS011;406;48.566;13.450;2023-04-25T09:56:18;2.30;;;2.00;;
840;SDS011;406;48.566;13.450;2023-04-25T09:58:47;2.13;;;1.83;;
840;SDS011;406;48.566;13.450;2023-04-25T10:01:15;4.23;;;2.43;;
840;SDS011;406;48.566;13.450;2023-04-25T10:03:56;4.97;;;2.60;;
840;SDS011;406;48.566;13.450;2023-04-25T10:06:58;2.10;;;1.90;;
840;SDS011;406;48.566;13.450;2023-04-25T10:09:26;3.67;;;2.17;;
840;SDS011;406;48.566;13.450;2023-04-25T10:11:57;2.70;;;1.80;;
840;SDS011;406;48.566;13.450;2023-04-25T10:14:24;3.33;;;1.87;;
840;SDS011;406;48.566;13.450;2023-04-25T10:16:51;3.47;;;1.90;;
840;SDS011;406;48.566;13.450;2023-04-25T10:19:21;3.80;;;2.43;;
840;SDS011;406;48.566;13.450;2023-04-25T10:21:50;4.37;;;2.07;;
840;SDS011;406;48.566;13.450;2023-04-25T10:24:19;3.07;;;1.97;;
840;SDS011;406;48.566;13.450;2023-04-25T10:26:46;2.70;;;2.50;;
840;SDS011;406;48.566;13.450;2023-04-25T10:29:15;4.63;;;2.43;;
840;SDS011;406;48.566;13.450;2023-04-25T10:31:48;2.90;;;2.27;;
840;SDS011;406;48.566;13.450;2023-04-25T10:34:15;2.90;;;2.00;;
840;SDS011;406;48.566;13.450;2023-04-25T10:36:44;3.20;;;2.90;;
840;SDS011;406;48.566;13.450;2023-04-25T10:39:21;2.97;;;2.50;;
840;SDS011;406;48.566;13.450;2023-04-25T10:41:53;2.53;;;1.80;;
840;SDS011;406;48.566;13.450;2023-04-25T10:44:22;5.57;;;3.10;;
840;SDS011;406;48.566;13.450;2023-04-25T10:46:48;3.00;;;2.70;;
840;SDS011;406;48.566;13.450;2023-04-25T10:49:31;3.90;;;2.97;;
840;SDS011;406;48.566;13.450;2023-04-25T10:54:48;2.60;;;2.40;;
840;SDS011;406;48.566;13.450;2023-04-25T10:57:27;3.73;;;2.47;;
840;SDS011;406;48.566;13.450;2023-04-25T11:00:05;4.90;;;2.00;;
840;SDS011;406;48.566;13.450;2023-04-25T11:02:36;2.70;;;1.63;;
840;SDS011;406;48.566;13.450;2023-04-25T11:05:03;2.33;;;1.63;;
840;SDS011;406;48.566;13.450;2023-04-25T11:07:49;2.63;;;1.70;;
840;SDS011;406;48.566;13.450;2023-04-25T11:10:30;2.83;;;1.80;;
840;SDS011;406;48.566;13.450;2023-04-25T11:12:57;1.90;;;1.70;;
840;SDS011;406;48.566;13.450;2023-04-25T11:15:24;3.83;;;1.57;;
840;SDS011;406;48.566;13.450;2023-04-25T11:17:51;2.20;;;1.70;;
840;SDS011;406;48.566;13.450;2023-04-25T11:20:18;1.60;;;1.20;;
840;SDS011;406;48.566;13.450;2023-04-25T11:22:45;3.10;;;2.80;;
840;SDS011;406;48.566;13.450;2023-04-25T11:25:13;1.93;;;1.60;;
840;SDS011;406;48.566;13.450;2023-04-25T11:27:54;2.93;;;1.63;;
840;SDS011;406;48.566;13.450;2023-04-25T11:30:23;2.03;;;1.77;;
840;SDS011;406;48.566;13.450;2023-04-25T11:32:51;3.00;;;2.10;;
840;SDS011;406;48.566;13.450;2023-04-25T11:35:21;5.03;;;1.83;;
840;SDS011;406;48.566;13.450;2023-04-25T11:37:49;5.30;;;1.80;;
840;SDS011;406;48.566;13.450;2023-04-25T11:40:16;2.77;;;2.40;;
840;SDS011;406;48.566;13.450;2023-04-25T11:42:43;3.20;;;2.30;;
840;SDS011;406;48.566;13.450;2023-04-25T11:45:11;2.83;;;1.83;;
840;SDS011;406;48.566;13.450;2023-04-25T11:47:38;2.33;;;2.13;;
840;SDS011;406;48.566;13.450;2023-04-25T11:50:06;2.33;;;1.83;;
840;SDS011;406;48.566;13.450;2023-04-25T11:55:12;2.00;;;1.80;;
840;SDS011;406;48.566;13.450;2023-04-25T11:57:41;1.20;;;1.10;;
840;SDS011;406;48.566;13.450;2023-04-25T12:02:46;1.23;;;1.13;;
840;SDS011;406;48.566;13.450;2023-04-25T12:05:17;1.20;;;1.10;;
840;SDS011;406;48.566;13.450;2023-04-25T12:07:46;1.97;;;1.30;;
840;SDS011;406;48.566;13.450;2023-04-25T12:10:13;2.63;;;1.50;;
840;SDS011;406;48.566;13.450;2023-04-25T12:12:41;3.23;;;1.70;;
840;SDS011;406;48.566;13.450;2023-04-25T12:15:18;2.10;;;1.50;;
840;SDS011;406;48.566;13.450;2023-04-25T12:17:53;1.20;;;1.03;;
840;SDS011;406;48.566;13.450;2023-04-25T12:20:24;1.77;;;1.00;;
840;SDS011;406;48.566;13.450;2023-04-25T12:22:52;3.00;;;1.37;;
840;SDS011;406;48.566;13.450;2023-04-25T12:28:44;1.77;;;1.30;;
840;SDS011;406;48.566;13.450;2023-04-25T12:31:02;2.10;;;1.67;;
840;SDS011;406;48.566;13.450;2023-04-25T12:33:34;2.30;;;1.47;;
840;SDS011;406;48.566;13.450;2023-04-25T12:36:03;3.40;;;1.90;;
840;SDS011;406;48.566;13.450;2023-04-25T12:38:35;2.77;;;1.87;;
840;SDS011;406;48.566;13.450;2023-04-25T12:41:03;2.50;;;1.90;;
840;SDS011;406;48.566;13.450;2023-04-25T12:43:30;2.40;;;2.17;;
840;SDS011;406;48.566;13.450;2023-04-25T12:45:56;3.13;;;2.83;;
840;SDS011;406;48.566;13.450;2023-04-25T12:48:23;2.30;;;1.97;;
840;SDS011;406;48.566;13.450;2023-04-25T12:50:50;2.70;;;1.73;;
840;SDS011;406;48.566;13.450;2023-04-25T12:53:18;2.43;;;2.00;;
840;SDS011;406;48.566;13.450;2023-04-25T12:55:45;2.37;;;2.17;;
840;SDS011;406;48.566;13.450;2023-04-25T12:58:14;2.20;;;2.00;;
840;SDS011;406;48.566;13.450;2023-04-25T13:00:42;2.00;;;1.80;;
840;SDS011;406;48.566;13.450;2023-04-25T13:03:09;4.40;;;2.10;;
840;SDS011;406;48.566;13.450;2023-04-25T13:05:37;1.80;;;1.70;;
840;SDS011;406;48.566;13.450;2023-04-25T13:08:04;3.73;;;2.63;;
840;SDS011;406;48.566;13.450;2023-04-25T13:10:31;4.33;;;2.60;;
840;SDS011;406;48.566;13.450;2023-04-25T13:12:57;3.00;;;2.40;;
840;SDS011;406;48.566;13.450;2023-04-25T13:15:24;2.77;;;2.50;;
840;SDS011;406;48.566;13.450;2023-04-25T13:17:50;4.50;;;3.33;;
840;SDS011;406;48.566;13.450;2023-04-25T13:20:17;2.37;;;2.03;;
840;SDS011;406;48.566;13.450;2023-04-25T13:22:45;2.93;;;2.27;;
840;SDS011;406;48.566;13.450;2023-04-25T13:25:11;2.43;;;2.23;;
840;SDS011;406;48.566;13.450;2023-04-25T13:27:38;2.60;;;2.40;;
840;SDS011;406;48.566;13.450;2023-04-25T13:30:06;2.67;;;2.43;;
840;SDS011;406;48.566;13.450;2023-04-25T13:32:34;2.90;;;2.57;;
840;SDS011;406;48.566;13.450;2023-04-25T13:35:03;4.13;;;2.37;;
840;SDS011;406;48.566;13.450;2023-04-25T13:37:34;2.40;;;2.03;;
840;SDS011;406;48.566;13.450;2023-04-25T13:40:03;2.77;;;2.10;;
840;SDS011;406;48.566;13.450;2023-04-25T13:42:31;2.10;;;1.90;;
840;SDS011;406;48.566;13.450;2023-04-25T13:44:58;2.43;;;2.23;;
840;SDS011;406;48.566;13.450;2023-04-25T13:47:25;2.93;;;2.13;;
840;SDS011;406;48.566;13.450;2023-04-25T13:49:51;1.77;;;1.67;;
840;SDS011;406;48.566;13.450;2023-04-25T13:52:18;2.10;;;1.90;;
840;SDS011;406;48.566;13.450;2023-04-25T13:54:44;3.23;;;2.23;;
840;SDS011;406;48.566;13.450;2023-04-25T13:57:11;2.10;;;1.80;;
840;SDS011;406;48.566;13.450;2023-04-25T13:59:38;1.73;;;1.53;;
840;SDS011;406;48.566;13.450;2023-04-25T14:02:05;1.70;;;1.50;;
840;SDS011;406;48.566;13.450;2023-04-25T14:04:31;1.70;;;1.50;;
840;SDS011;406;48.566;13.450;2023-04-25T14:06:59;2.53;;;1.50;;
840;SDS011;406;48.566;13.450;2023-04-25T14:09:25;3.67;;;2.17;;
840;SDS011;406;48.566;13.450;2023-04-25T14:11:53;1.80;;;1.60;;
840;SDS011;406;48.566;13.450;2023-04-25T14:14:20;2.67;;;1.90;;
840;SDS011;406;48.566;13.450;2023-04-25T14:16:47;2.10;;;1.90;;
840;SDS011;406;48.566;13.450;2023-04-25T14:19:15;3.93;;;2.20;;
840;SDS011;406;48.566;13.450;2023-04-25T14:21:41;10.13;;;2.03;;
840;SDS011;406;48.566;13.450;2023-04-25T14:24:09;1.70;;;1.60;;
840;SDS011;406;48.566;13.450;2023-04-25T14:26:37;2.20;;;1.87;;
840;SDS011;406;48.566;13.450;2023-04-25T14:29:04;1.83;;;1.63;;
840;SDS011;406;48.566;13.450;2023-04-25T14:31:31;3.63;;;1.80;;
840;SDS011;406;48.566;13.450;2023-04-25T14:33:58;1.53;;;1.43;;
840;SDS011;406;48.566;13.450;2023-04-25T14:36:25;1.47;;;1.00;;
840;SDS011;406;48.566;13.450;2023-04-25T14:38:52;1.97;;;1.60;;
840;SDS011;406;48.566;13.450;2023-04-25T14:41:19;1.70;;;1.47;;
840;SDS011;406;48.566;13.450;2023-04-25T14:43:45;2.10;;;1.63;;
840;SDS011;406;48.566;13.450;2023-04-25T14:46:12;2.17;;;1.37;;
840;SDS011;406;48.566;13.450;2023-04-25T14:48:38;1.33;;;1.00;;
840;SDS011;406;48.566;13.450;2023-04-25T14:51:05;1.40;;;1.30;;
840;SDS011;406;48.566;13.450;2023-04-25T14:53:32;1.60;;;1.37;;
840;SDS011;406;48.566;13.450;2023-04-25T14:55:58;2.00;;;1.10;;
840;SDS011;406;48.566;13.450;2023-04-25T14:58:25;1.47;;;1.20;;
840;SDS011;406;48.566;13.450;2023-04-25T15:00:52;3.00;;;1.20;;
840;SDS011;406;48.566;13.450;2023-04-25T15:03:18;1.77;;;1.67;;
840;SDS011;406;48.566;13.450;2023-04-25T15:05:45;3.37;;;1.80;;
840;SDS011;406;48.566;13.450;2023-04-25T15:08:11;1.43;;;1.10;;
840;SDS011;406;48.566;13.450;2023-04-25T15:10:38;2.37;;;1.60;;
840;SDS011;406;48.566;13.450;2023-04-25T15:13:04;1.47;;;1.10;;
840;SDS011;406;48.566;13.450;2023-04-25T15:15:31;1.50;;;1.20;;
840;SDS011;406;48.566;13.450;2023-04-25T15:17:58;2.00;;;1.30;;
840;SDS011;406;48.566;13.450;2023-04-25T15:20:25;1.40;;;1.23;;
840;SDS011;406;48.566;13.450;2023-04-25T15:22:51;2.10;;;1.60;;
840;SDS011;406;48.566;13.450;2023-04-25T15:25:18;1.53;;;1.33;;
840;SDS011;406;48.566;13.450;2023-04-25T15:27:45;1.47;;;1.20;;
840;SDS011;406;48.566;13.450;2023-04-25T15:30:15;1.67;;;1.20;;
840;SDS011;406;48.566;13.450;2023-04-25T15:32:43;1.53;;;1.30;;
840;SDS011;406;48.566;13.450;2023-04-25T15:35:10;2.33;;;1.20;;
840;SDS011;406;48.566;13.450;2023-04-25T15:37:37;1.87;;;1.73;;
840;SDS011;406;48.566;13.450;2023-04-25T15:40:04;1.40;;;1.13;;
840;SDS011;406;48.566;13.450;2023-04-25T15:42:35;1.30;;;1.20;;
840;SDS011;406;48.566;13.450;2023-04-25T15:45:06;5.37;;;1.30;;
840;SDS011;406;48.566;13.450;2023-04-25T15:47:34;1.73;;;1.43;;
840;SDS011;406;48.566;13.450;2023-04-25T15:50:01;2.17;;;1.97;;
840;SDS011;406;48.566;13.450;2023-04-25T15:52:28;1.60;;;1.50;;
840;SDS011;406;48.566;13.450;2023-04-25T15:54:54;2.60;;;1.60;;
840;SDS011;406;48.566;13.450;2023-04-25T15:57:21;2.03;;;1.83;;
840;SDS011;406;48.566;13.450;2023-04-25T15:59:48;3.33;;;2.10;;